sensor_id;sensor_type;location;lat;lon;timestamp;P1;durP1;ratioP1;P2;durP2;ratioP2
54157;SDS011;40065;49.894;10.358;2022-07-01T00:01:02;7.10;;;3.10;;
54157;SDS011;40065;49.894;10.358;2022-07-01T00:06:04;7.20;;;2.72;;
54157;SDS011;40065;49.894;10.358;2022-07-01T00:11:06;9.10;;;2.78;;
54157;SDS011;40065;49.894;10.358;2022-07-01T00:16:07;10.02;;;3.10;;
54157;SDS011;40065;49.894;10.358;2022-07-01T00:21:09;8.35;;;2.85;;
54157;SDS011;40065;49.894;10.358;2022-07-01T00:26:15;6.88;;;2.40;;
54157;SDS011;40065;49.894;10.358;2022-07-01T00:36:20;5.22;;;2.67;;
54157;SDS011;40065;49.894;10.358;2022-07-01T00:41:26;4.20;;;2.85;;
54157;SDS011;40065;49.894;10.358;2022-07-01T00:46:29;9.30;;;2.90;;
54157;SDS011;40065;49.894;10.358;2022-07-01T00:51:31;4.28;;;2.78;;
54157;SDS011;40065;49.894;10.358;2022-07-01T00:56:33;5.60;;;3.05;;
54157;SDS011;40065;49.894;10.358;2022-07-01T01:01:35;9.00;;;3.10;;
54157;SDS011;40065;49.894;10.358;2022-07-01T01:06:37;5.78;;;3.00;;
54157;SDS011;40065;49.894;10.358;2022-07-01T01:11:39;7.78;;;2.80;;
54157;SDS011;40065;49.894;10.358;2022-07-01T01:16:42;6.25;;;2.97;;
54157;SDS011;40065;49.894;10.358;2022-07-01T01:21:44;4.13;;;2.70;;
54157;SDS011;40065;49.894;10.358;2022-07-01T01:26:45;5.03;;;2.70;;
54157;SDS011;40065;49.894;10.358;2022-07-01T01:31:47;4.50;;;2.53;;
54157;SDS011;40065;49.894;10.358;2022-07-01T01:36:49;5.00;;;2.38;;
54157;SDS011;40065;49.894;10.358;2022-07-01T01:41:51;7.45;;;2.55;;
54157;SDS011;40065;49.894;10.358;2022-07-01T01:46:53;4.38;;;2.80;;
54157;SDS011;40065;49.894;10.358;2022-07-01T01:51:58;4.82;;;2.58;;
54157;SDS011;40065;49.894;10.358;2022-07-01T01:57:03;4.10;;;2.53;;
54157;SDS011;40065;49.894;10.358;2022-07-01T02:02:06;5.77;;;2.23;;
54157;SDS011;40065;49.894;10.358;2022-07-01T02:07:07;3.85;;;2.15;;
54157;SDS011;40065;49.894;10.358;2022-07-01T02:12:09;4.28;;;1.85;;
54157;SDS011;40065;49.894;10.358;2022-07-01T02:17:11;2.75;;;1.65;;
54157;SDS011;40065;49.894;10.358;2022-07-01T02:22:13;3.42;;;1.20;;
54157;SDS011;40065;49.894;10.358;2022-07-01T02:27:15;3.25;;;1.17;;
54157;SDS011;40065;49.894;10.358;2022-07-01T02:32:16;1.70;;;1.10;;
54157;SDS011;40065;49.894;10.358;2022-07-01T02:37:18;2.92;;;1.20;;
54157;SDS011;40065;49.894;10.358;2022-07-01T02:42:20;3.22;;;1.17;;
54157;SDS011;40065;49.894;10.358;2022-07-01T02:47:31;3.53;;;0.90;;
54157;SDS011;40065;49.894;10.358;2022-07-01T02:52:35;2.75;;;1.30;;
54157;SDS011;40065;49.894;10.358;2022-07-01T02:57:38;2.63;;;1.10;;
54157;SDS011;40065;49.894;10.358;2022-07-01T03:02:40;7.15;;;1.15;;
54157;SDS011;40065;49.894;10.358;2022-07-01T03:07:43;5.20;;;1.30;;
54157;SDS011;40065;49.894;10.358;2022-07-01T03:12:45;1.83;;;1.00;;
54157;SDS011;40065;49.894;10.358;2022-07-01T03:17:47;5.82;;;1.30;;
54157;SDS011;40065;49.894;10.358;2022-07-01T03:22:49;2.85;;;1.00;;
54157;SDS011;40065;49.894;10.358;2022-07-01T03:27:52;2.42;;;1.15;;
54157;SDS011;40065;49.894;10.358;2022-07-01T03:32:53;2.08;;;1.15;;
54157;SDS011;40065;49.894;10.358;2022-07-01T03:37:56;3.47;;;1.30;;
54157;SDS011;40065;49.894;10.358;2022-07-01T03:42:58;3.33;;;1.42;;
54157;SDS011;40065;49.894;10.358;2022-07-01T03:48:00;1.33;;;0.93;;
54157;SDS011;40065;49.894;10.358;2022-07-01T03:53:03;1.92;;;1.13;;
54157;SDS011;40065;49.894;10.358;2022-07-01T03:58:24;3.00;;;1.45;;
54157;SDS011;40065;49.894;10.358;2022-07-01T04:03:25;3.10;;;1.50;;
54157;SDS011;40065;49.894;10.358;2022-07-01T04:08:27;3.78;;;2.00;;
54157;SDS011;40065;49.894;10.358;2022-07-01T04:13:29;3.60;;;1.60;;
54157;SDS011;40065;49.894;10.358;2022-07-01T04:18:32;2.65;;;1.60;;
54157;SDS011;40065;49.894;10.358;2022-07-01T04:23:34;2.35;;;1.33;;
54157;SDS011;40065;49.894;10.358;2022-07-01T04:28:36;2.05;;;1.45;;
54157;SDS011;40065;49.894;10.358;2022-07-01T04:33:38;2.75;;;1.40;;
54157;SDS011;40065;49.894;10.358;2022-07-01T04:38:40;2.30;;;1.42;;
54157;SDS011;40065;49.894;10.358;2022-07-01T04:43:42;3.58;;;1.80;;
54157;SDS011;40065;49.894;10.358;2022-07-01T04:48:44;1.80;;;1.20;;
54157;SDS011;40065;49.894;10.358;2022-07-01T04:53:46;1.80;;;1.20;;
54157;SDS011;40065;49.894;10.358;2022-07-01T04:58:48;2.90;;;1.50;;
54157;SDS011;40065;49.894;10.358;2022-07-01T05:03:50;3.25;;;1.65;;
54157;SDS011;40065;49.894;10.358;2022-07-01T05:08:52;4.53;;;1.88;;
54157;SDS011;40065;49.894;10.358;2022-07-01T05:13:54;3.70;;;2.10;;
54157;SDS011;40065;49.894;10.358;2022-07-01T05:18:56;2.95;;;1.77;;
54157;SDS011;40065;49.894;10.358;2022-07-01T05:24:16;5.25;;;2.35;;
54157;SDS011;40065;49.894;10.358;2022-07-01T05:29:18;2.33;;;1.75;;
54157;SDS011;40065;49.894;10.358;2022-07-01T05:34:20;2.45;;;1.83;;
54157;SDS011;40065;49.894;10.358;2022-07-01T05:39:22;3.22;;;1.98;;
54157;SDS011;40065;49.894;10.358;2022-07-01T05:44:24;3.10;;;2.28;;
54157;SDS011;40065;49.894;10.358;2022-07-01T05:49:26;3.13;;;2.03;;
54157;SDS011;40065;49.894;10.358;2022-07-01T05:54:28;2.60;;;2.10;;
54157;SDS011;40065;49.894;10.358;2022-07-01T05:59:30;2.67;;;1.63;;
54157;SDS011;40065;49.894;10.358;2022-07-01T06:04:31;2.28;;;1.60;;
54157;SDS011;40065;49.894;10.358;2022-07-01T06:09:35;2.97;;;1.70;;
54157;SDS011;40065;49.894;10.358;2022-07-01T06:14:37;3.20;;;2.00;;
54157;SDS011;40065;49.894;10.358;2022-07-01T06:19:41;3.53;;;2.80;;
54157;SDS011;40065;49.894;10.358;2022-07-01T06:24:44;2.95;;;2.63;;
54157;SDS011;40065;49.894;10.358;2022-07-01T06:29:46;2.67;;;2.10;;
54157;SDS011;40065;49.894;10.358;2022-07-01T06:34:47;3.70;;;2.70;;
54157;SDS011;40065;49.894;10.358;2022-07-01T06:39:50;3.45;;;2.92;;
54157;SDS011;40065;49.894;10.358;2022-07-01T06:44:52;5.50;;;3.40;;
54157;SDS011;40065;49.894;10.358;2022-07-01T06:49:54;4.07;;;3.35;;
54157;SDS011;40065;49.894;10.358;2022-07-01T06:55:01;6.90;;;3.40;;
54157;SDS011;40065;49.894;10.358;2022-07-01T07:00:02;4.32;;;3.30;;
54157;SDS011;40065;49.894;10.358;2022-07-01T07:05:05;5.10;;;4.20;;
54157;SDS011;40065;49.894;10.358;2022-07-01T07:10:08;5.00;;;4.50;;
54157;SDS011;40065;49.894;10.358;2022-07-01T07:15:10;4.68;;;3.67;;
54157;SDS011;40065;49.894;10.358;2022-07-01T07:20:12;4.35;;;3.80;;
54157;SDS011;40065;49.894;10.358;2022-07-01T07:25:13;5.05;;;3.65;;
54157;SDS011;40065;49.894;10.358;2022-07-01T07:30:16;4.97;;;4.20;;
54157;SDS011;40065;49.894;10.358;2022-07-01T07:35:18;3.63;;;3.03;;
54157;SDS011;40065;49.894;10.358;2022-07-01T07:40:19;5.55;;;4.50;;
54157;SDS011;40065;49.894;10.358;2022-07-01T07:45:21;4.75;;;4.20;;
54157;SDS011;40065;49.894;10.358;2022-07-01T07:50:23;5.93;;;4.43;;
54157;SDS011;40065;49.894;10.358;2022-07-01T07:55:28;6.70;;;4.40;;
54157;SDS011;40065;49.894;10.358;2022-07-01T08:00:30;6.97;;;5.20;;
54157;SDS011;40065;49.894;10.358;2022-07-01T08:05:37;5.82;;;4.75;;
54157;SDS011;40065;49.894;10.358;2022-07-01T08:10:38;7.45;;;5.30;;
54157;SDS011;40065;49.894;10.358;2022-07-01T08:15:40;9.10;;;4.95;;
54157;SDS011;40065;49.894;10.358;2022-07-01T08:20:44;6.72;;;5.03;;
54157;SDS011;40065;49.894;10.358;2022-07-01T08:25:47;7.13;;;4.50;;
54157;SDS011;40065;49.894;10.358;2022-07-01T08:30:53;8.73;;;5.50;;
54157;SDS011;40065;49.894;10.358;2022-07-01T08:35:55;4.70;;;3.58;;
54157;SDS011;40065;49.894;10.358;2022-07-01T08:40:57;7.78;;;4.47;;
54157;SDS011;40065;49.894;10.358;2022-07-01T08:46:02;7.43;;;4.47;;
54157;SDS011;40065;49.894;10.358;2022-07-01T08:51:04;6.88;;;4.75;;
54157;SDS011;40065;49.894;10.358;2022-07-01T08:56:07;5.78;;;3.67;;
54157;SDS011;40065;49.894;10.358;2022-07-01T09:01:28;4.47;;;3.15;;
54157;SDS011;40065;49.894;10.358;2022-07-01T09:06:30;8.10;;;3.80;;
54157;SDS011;40065;49.894;10.358;2022-07-01T09:11:32;5.80;;;4.10;;
54157;SDS011;40065;49.894;10.358;2022-07-01T09:16:40;7.93;;;4.10;;
54157;SDS011;40065;49.894;10.358;2022-07-01T09:21:47;7.88;;;3.92;;
54157;SDS011;40065;49.894;10.358;2022-07-01T09:26:55;7.40;;;3.55;;
54157;SDS011;40065;49.894;10.358;2022-07-01T09:32:12;3.88;;;2.50;;
54157;SDS011;40065;49.894;10.358;2022-07-01T09:37:18;3.78;;;2.42;;
54157;SDS011;40065;49.894;10.358;2022-07-01T09:42:23;4.63;;;2.60;;
54157;SDS011;40065;49.894;10.358;2022-07-01T09:47:26;2.70;;;2.00;;
54157;SDS011;40065;49.894;10.358;2022-07-01T09:52:29;3.17;;;2.13;;
54157;SDS011;40065;49.894;10.358;2022-07-01T09:57:37;4.97;;;2.40;;
54157;SDS011;40065;49.894;10.358;2022-07-01T10:02:39;4.43;;;2.25;;
54157;SDS011;40065;49.894;10.358;2022-07-01T10:13:16;3.17;;;2.47;;
54157;SDS011;40065;49.894;10.358;2022-07-01T10:18:23;6.03;;;3.10;;
54157;SDS011;40065;49.894;10.358;2022-07-01T10:23:37;4.15;;;3.00;;
54157;SDS011;40065;49.894;10.358;2022-07-01T10:28:43;5.68;;;3.25;;
54157;SDS011;40065;49.894;10.358;2022-07-01T10:33:57;6.65;;;2.20;;
54157;SDS011;40065;49.894;10.358;2022-07-01T10:44:10;3.78;;;2.70;;
54157;SDS011;40065;49.894;10.358;2022-07-01T10:59:41;4.68;;;2.85;;
54157;SDS011;40065;49.894;10.358;2022-07-01T11:04:49;4.15;;;2.40;;
54157;SDS011;40065;49.894;10.358;2022-07-01T11:14:55;2.60;;;2.05;;
54157;SDS011;40065;49.894;10.358;2022-07-01T11:20:00;5.63;;;2.65;;
54157;SDS011;40065;49.894;10.358;2022-07-01T11:25:04;3.10;;;2.63;;
54157;SDS011;40065;49.894;10.358;2022-07-01T11:30:09;4.80;;;3.00;;
54157;SDS011;40065;49.894;10.358;2022-07-01T11:40:46;6.63;;;2.75;;
54157;SDS011;40065;49.894;10.358;2022-07-01T11:45:47;3.70;;;2.80;;
54157;SDS011;40065;49.894;10.358;2022-07-01T11:50:49;4.78;;;2.65;;
54157;SDS011;40065;49.894;10.358;2022-07-01T11:55:51;2.85;;;2.08;;
54157;SDS011;40065;49.894;10.358;2022-07-01T12:00:53;4.80;;;1.42;;
54157;SDS011;40065;49.894;10.358;2022-07-01T12:05:55;2.70;;;1.38;;
54157;SDS011;40065;49.894;10.358;2022-07-01T12:10:58;6.57;;;2.30;;
54157;SDS011;40065;49.894;10.358;2022-07-01T12:16:05;2.00;;;1.73;;
54157;SDS011;40065;49.894;10.358;2022-07-01T12:21:11;4.65;;;1.90;;
54157;SDS011;40065;49.894;10.358;2022-07-01T12:26:12;3.53;;;2.50;;
54157;SDS011;40065;49.894;10.358;2022-07-01T12:31:14;3.25;;;2.58;;
54157;SDS011;40065;49.894;10.358;2022-07-01T12:36:19;5.63;;;2.70;;
54157;SDS011;40065;49.894;10.358;2022-07-01T12:41:30;3.55;;;2.47;;
54157;SDS011;40065;49.894;10.358;2022-07-01T12:46:39;3.75;;;2.90;;
54157;SDS011;40065;49.894;10.358;2022-07-01T12:51:41;4.20;;;2.50;;
54157;SDS011;40065;49.894;10.358;2022-07-01T12:56:43;3.72;;;2.30;;
54157;SDS011;40065;49.894;10.358;2022-07-01T13:01:45;4.50;;;2.25;;
54157;SDS011;40065;49.894;10.358;2022-07-01T13:06:47;3.17;;;2.30;;
54157;SDS011;40065;49.894;10.358;2022-07-01T13:11:48;3.08;;;1.90;;
54157;SDS011;40065;49.894;10.358;2022-07-01T13:16:50;3.00;;;1.70;;
54157;SDS011;40065;49.894;10.358;2022-07-01T13:21:52;4.50;;;1.70;;
54157;SDS011;40065;49.894;10.358;2022-07-01T13:26:54;2.97;;;1.65;;
54157;SDS011;40065;49.894;10.358;2022-07-01T13:31:56;3.50;;;1.70;;
54157;SDS011;40065;49.894;10.358;2022-07-01T13:36:58;3.20;;;1.60;;
54157;SDS011;40065;49.894;10.358;2022-07-01T13:42:00;2.35;;;1.60;;
54157;SDS011;40065;49.894;10.358;2022-07-01T13:47:01;4.63;;;1.20;;
54157;SDS011;40065;49.894;10.358;2022-07-01T13:52:06;3.92;;;1.00;;
54157;SDS011;40065;49.894;10.358;2022-07-01T13:57:08;3.10;;;1.25;;
54157;SDS011;40065;49.894;10.358;2022-07-01T14:02:10;2.03;;;1.20;;
54157;SDS011;40065;49.894;10.358;2022-07-01T14:07:12;2.40;;;1.55;;
54157;SDS011;40065;49.894;10.358;2022-07-01T14:12:14;2.05;;;1.13;;
54157;SDS011;40065;49.894;10.358;2022-07-01T14:17:27;2.55;;;1.60;;
54157;SDS011;40065;49.894;10.358;2022-07-01T14:22:29;2.28;;;1.10;;
54157;SDS011;40065;49.894;10.358;2022-07-01T14:27:32;2.63;;;1.58;;
54157;SDS011;40065;49.894;10.358;2022-07-01T14:32:34;2.63;;;1.65;;
54157;SDS011;40065;49.894;10.358;2022-07-01T14:37:36;2.60;;;1.33;;
54157;SDS011;40065;49.894;10.358;2022-07-01T14:42:39;3.28;;;1.02;;
54157;SDS011;40065;49.894;10.358;2022-07-01T14:47:41;2.80;;;1.40;;
54157;SDS011;40065;49.894;10.358;2022-07-01T14:52:43;2.05;;;1.45;;
54157;SDS011;40065;49.894;10.358;2022-07-01T14:57:45;3.15;;;1.30;;
54157;SDS011;40065;49.894;10.358;2022-07-01T15:02:47;2.60;;;1.17;;
54157;SDS011;40065;49.894;10.358;2022-07-01T15:07:49;2.28;;;1.17;;
54157;SDS011;40065;49.894;10.358;2022-07-01T15:12:51;1.25;;;0.90;;
54157;SDS011;40065;49.894;10.358;2022-07-01T15:17:54;2.33;;;0.98;;
54157;SDS011;40065;49.894;10.358;2022-07-01T15:22:56;2.85;;;1.00;;
54157;SDS011;40065;49.894;10.358;2022-07-01T15:27:57;2.22;;;1.00;;
54157;SDS011;40065;49.894;10.358;2022-07-01T15:32:59;4.72;;;0.95;;
54157;SDS011;40065;49.894;10.358;2022-07-01T15:38:01;2.03;;;0.85;;
54157;SDS011;40065;49.894;10.358;2022-07-01T15:43:03;2.42;;;0.77;;
54157;SDS011;40065;49.894;10.358;2022-07-01T15:48:05;2.50;;;1.00;;
54157;SDS011;40065;49.894;10.358;2022-07-01T15:53:08;4.13;;;0.90;;
54157;SDS011;40065;49.894;10.358;2022-07-01T15:58:11;2.65;;;0.90;;
54157;SDS011;40065;49.894;10.358;2022-07-01T16:03:14;2.05;;;0.90;;
54157;SDS011;40065;49.894;10.358;2022-07-01T16:08:38;2.65;;;1.00;;
54157;SDS011;40065;49.894;10.358;2022-07-01T16:13:43;2.77;;;1.00;;
54157;SDS011;40065;49.894;10.358;2022-07-01T16:18:50;1.58;;;0.70;;
54157;SDS011;40065;49.894;10.358;2022-07-01T16:23:53;2.15;;;0.80;;
54157;SDS011;40065;49.894;10.358;2022-07-01T16:28:57;3.60;;;0.90;;
54157;SDS011;40065;49.894;10.358;2022-07-01T16:34:01;2.70;;;0.82;;
54157;SDS011;40065;49.894;10.358;2022-07-01T16:44:24;3.65;;;1.13;;
54157;SDS011;40065;49.894;10.358;2022-07-01T16:49:40;3.88;;;1.10;;
54157;SDS011;40065;49.894;10.358;2022-07-01T16:54:48;2.15;;;1.00;;
54157;SDS011;40065;49.894;10.358;2022-07-01T16:59:57;3.05;;;0.90;;
54157;SDS011;40065;49.894;10.358;2022-07-01T17:04:59;3.00;;;1.00;;
54157;SDS011;40065;49.894;10.358;2022-07-01T17:10:03;2.33;;;1.00;;
54157;SDS011;40065;49.894;10.358;2022-07-01T17:15:06;2.28;;;1.00;;
54157;SDS011;40065;49.894;10.358;2022-07-01T17:20:09;3.10;;;1.30;;
54157;SDS011;40065;49.894;10.358;2022-07-01T17:30:34;4.10;;;1.20;;
54157;SDS011;40065;49.894;10.358;2022-07-01T17:35:46;0.90;;;0.80;;
54157;SDS011;40065;49.894;10.358;2022-07-01T17:40:52;2.85;;;1.25;;
54157;SDS011;40065;49.894;10.358;2022-07-01T17:50:58;2.28;;;1.20;;
54157;SDS011;40065;49.894;10.358;2022-07-01T17:56:02;3.13;;;1.23;;
54157;SDS011;40065;49.894;10.358;2022-07-01T18:01:05;1.55;;;1.00;;
54157;SDS011;40065;49.894;10.358;2022-07-01T18:06:07;2.08;;;1.30;;
54157;SDS011;40065;49.894;10.358;2022-07-01T18:21:39;2.53;;;1.10;;
54157;SDS011;40065;49.894;10.358;2022-07-01T18:26:46;1.58;;;0.90;;
54157;SDS011;40065;49.894;10.358;2022-07-01T18:31:52;3.25;;;1.40;;
54157;SDS011;40065;49.894;10.358;2022-07-01T18:37:00;1.63;;;0.90;;
54157;SDS011;40065;49.894;10.358;2022-07-01T18:42:06;1.20;;;0.68;;
54157;SDS011;40065;49.894;10.358;2022-07-01T18:47:08;5.82;;;1.25;;
54157;SDS011;40065;49.894;10.358;2022-07-01T18:52:09;3.15;;;1.17;;
54157;SDS011;40065;49.894;10.358;2022-07-01T18:57:11;2.33;;;1.08;;
54157;SDS011;40065;49.894;10.358;2022-07-01T19:02:13;3.17;;;1.00;;
54157;SDS011;40065;49.894;10.358;2022-07-01T19:07:18;4.75;;;1.00;;
54157;SDS011;40065;49.894;10.358;2022-07-01T19:12:20;2.05;;;1.15;;
54157;SDS011;40065;49.894;10.358;2022-07-01T19:17:22;2.15;;;1.08;;
54157;SDS011;40065;49.894;10.358;2022-07-01T19:22:24;1.83;;;1.13;;
54157;SDS011;40065;49.894;10.358;2022-07-01T19:27:26;4.50;;;1.35;;
54157;SDS011;40065;49.894;10.358;2022-07-01T19:32:28;1.85;;;1.20;;
54157;SDS011;40065;49.894;10.358;2022-07-01T19:37:30;1.73;;;1.15;;
54157;SDS011;40065;49.894;10.358;2022-07-01T19:42:31;2.35;;;1.30;;
54157;SDS011;40065;49.894;10.358;2022-07-01T19:47:34;2.45;;;1.15;;
54157;SDS011;40065;49.894;10.358;2022-07-01T19:52:36;2.83;;;1.40;;
54157;SDS011;40065;49.894;10.358;2022-07-01T19:57:38;2.30;;;1.40;;
54157;SDS011;40065;49.894;10.358;2022-07-01T20:02:39;3.83;;;1.50;;
54157;SDS011;40065;49.894;10.358;2022-07-01T20:07:41;3.08;;;1.80;;
54157;SDS011;40065;49.894;10.358;2022-07-01T20:12:43;3.70;;;1.75;;
54157;SDS011;40065;49.894;10.358;2022-07-01T20:17:45;4.32;;;1.70;;
54157;SDS011;40065;49.894;10.358;2022-07-01T20:22:47;3.38;;;1.90;;
54157;SDS011;40065;49.894;10.358;2022-07-01T20:27:49;4.03;;;2.00;;
54157;SDS011;40065;49.894;10.358;2022-07-01T20:32:51;3.22;;;2.13;;
54157;SDS011;40065;49.894;10.358;2022-07-01T20:37:52;2.85;;;1.90;;
54157;SDS011;40065;49.894;10.358;2022-07-01T20:42:54;3.67;;;2.00;;
54157;SDS011;40065;49.894;10.358;2022-07-01T20:47:56;3.35;;;2.10;;
54157;SDS011;40065;49.894;10.358;2022-07-01T20:52:58;3.58;;;1.85;;
54157;SDS011;40065;49.894;10.358;2022-07-01T20:58:00;2.33;;;1.95;;
54157;SDS011;40065;49.894;10.358;2022-07-01T21:03:02;3.53;;;2.20;;
54157;SDS011;40065;49.894;10.358;2022-07-01T21:08:04;2.67;;;2.17;;
54157;SDS011;40065;49.894;10.358;2022-07-01T21:13:06;2.05;;;1.70;;
54157;SDS011;40065;49.894;10.358;2022-07-01T21:18:07;4.20;;;1.75;;
54157;SDS011;40065;49.894;10.358;2022-07-01T21:23:09;3.45;;;2.03;;
54157;SDS011;40065;49.894;10.358;2022-07-01T21:28:11;2.58;;;1.65;;
54157;SDS011;40065;49.894;10.358;2022-07-01T21:33:13;3.50;;;1.95;;
54157;SDS011;40065;49.894;10.358;2022-07-01T21:38:15;3.40;;;2.03;;
54157;SDS011;40065;49.894;10.358;2022-07-01T21:43:17;3.55;;;2.45;;
54157;SDS011;40065;49.894;10.358;2022-07-01T21:48:20;4.65;;;2.13;;
54157;SDS011;40065;49.894;10.358;2022-07-01T21:58:28;6.53;;;2.40;;
54157;SDS011;40065;49.894;10.358;2022-07-01T22:03:32;2.80;;;2.20;;
54157;SDS011;40065;49.894;10.358;2022-07-01T22:08:35;3.67;;;2.90;;
54157;SDS011;40065;49.894;10.358;2022-07-01T22:19:06;5.65;;;2.50;;
54157;SDS011;40065;49.894;10.358;2022-07-01T22:24:08;2.92;;;2.50;;
54157;SDS011;40065;49.894;10.358;2022-07-01T22:29:17;4.72;;;3.00;;
54157;SDS011;40065;49.894;10.358;2022-07-01T22:34:24;2.83;;;2.20;;
54157;SDS011;40065;49.894;10.358;2022-07-01T22:39:26;3.08;;;2.20;;
54157;SDS011;40065;49.894;10.358;2022-07-01T22:44:33;3.38;;;2.03;;
54157;SDS011;40065;49.894;10.358;2022-07-01T22:55:25;2.80;;;2.10;;
54157;SDS011;40065;49.894;10.358;2022-07-01T23:00:38;2.58;;;1.90;;
54157;SDS011;40065;49.894;10.358;2022-07-01T23:05:43;3.38;;;1.90;;
54157;SDS011;40065;49.894;10.358;2022-07-01T23:10:50;5.05;;;2.13;;
54157;SDS011;40065;49.894;10.358;2022-07-01T23:15:56;4.03;;;2.20;;
54157;SDS011;40065;49.894;10.358;2022-07-01T23:21:19;2.70;;;2.17;;
54157;SDS011;40065;49.894;10.358;2022-07-01T23:26:21;3.30;;;2.30;;
54157;SDS011;40065;49.894;10.358;2022-07-01T23:31:27;3.75;;;2.47;;
54157;SDS011;40065;49.894;10.358;2022-07-01T23:36:31;2.72;;;2.10;;
54157;SDS011;40065;49.894;10.358;2022-07-01T23:41:34;3.97;;;2.20;;
54157;SDS011;40065;49.894;10.358;2022-07-01T23:46:36;4.97;;;2.33;;
54157;SDS011;40065;49.894;10.358;2022-07-01T23:51:38;2.75;;;2.10;;
54157;SDS011;40065;49.894;10.358;2022-07-01T23:56:40;4.13;;;2.53;;
